sensor_id;sensor_type;location;lat;lon;timestamp;temperature;humidity
51825;DHT22;37879;52.986;6.282;2023-01-31T00:00:08;3.60;99.90
51825;DHT22;37879;52.986;6.282;2023-01-31T00:02:34;3.60;99.90
51825;DHT22;37879;52.986;6.282;2023-01-31T00:04:59;3.50;99.90
51825;DHT22;37879;52.986;6.282;2023-01-31T00:07:25;3.50;99.90
51825;DHT22;37879;52.986;6.282;2023-01-31T00:09:51;3.40;99.90
51825;DHT22;37879;52.986;6.282;2023-01-31T00:12:16;3.40;99.90
51825;DHT22;37879;52.986;6.282;2023-01-31T00:14:42;3.30;99.90
51825;DHT22;37879;52.986;6.282;2023-01-31T00:17:08;3.30;99.90
51825;DHT22;37879;52.986;6.282;2023-01-31T00:19:33;3.30;99.90
51825;DHT22;37879;52.986;6.282;2023-01-31T00:21:59;3.80;99.90
51825;DHT22;37879;52.986;6.282;2023-01-31T00:24:25;3.20;99.90
51825;DHT22;37879;52.986;6.282;2023-01-31T00:26:50;3.20;99.90
51825;DHT22;37879;52.986;6.282;2023-01-31T00:29:22;3.10;99.90
51825;DHT22;37879;52.986;6.282;2023-01-31T00:31:48;3.10;99.90
51825;DHT22;37879;52.986;6.282;2023-01-31T00:34:14;4.40;99.90
51825;DHT22;37879;52.986;6.282;2023-01-31T00:36:41;3.10;99.90
51825;DHT22;37879;52.986;6.282;2023-01-31T00:39:07;3.00;99.90
51825;DHT22;37879;52.986;6.282;2023-01-31T00:41:34;3.00;99.90
51825;DHT22;37879;52.986;6.282;2023-01-31T00:44:00;3.00;99.90
51825;DHT22;37879;52.986;6.282;2023-01-31T00:46:26;3.40;99.90
51825;DHT22;37879;52.986;6.282;2023-01-31T00:48:52;2.90;99.90
51825;DHT22;37879;52.986;6.282;2023-01-31T00:51:19;2.90;99.90
51825;DHT22;37879;52.986;6.282;2023-01-31T00:53:45;2.90;99.90
51825;DHT22;37879;52.986;6.282;2023-01-31T00:56:13;2.80;99.90
51825;DHT22;37879;52.986;6.282;2023-01-31T00:58:39;2.80;99.90
51825;DHT22;37879;52.986;6.282;2023-01-31T01:01:20;2.80;99.90
51825;DHT22;37879;52.986;6.282;2023-01-31T01:03:47;2.80;99.90
51825;DHT22;37879;52.986;6.282;2023-01-31T01:06:13;2.90;99.90
51825;DHT22;37879;52.986;6.282;2023-01-31T01:08:39;2.80;99.90
51825;DHT22;37879;52.986;6.282;2023-01-31T01:13:31;2.90;99.90
51825;DHT22;37879;52.986;6.282;2023-01-31T01:15:57;2.90;99.90
51825;DHT22;37879;52.986;6.282;2023-01-31T01:18:27;2.90;99.90
51825;DHT22;37879;52.986;6.282;2023-01-31T01:20:54;2.90;99.90
51825;DHT22;37879;52.986;6.282;2023-01-31T01:23:19;2.90;99.90
51825;DHT22;37879;52.986;6.282;2023-01-31T01:25:45;2.90;99.90
51825;DHT22;37879;52.986;6.282;2023-01-31T01:28:10;2.90;99.90
51825;DHT22;37879;52.986;6.282;2023-01-31T01:30:37;2.80;99.90
51825;DHT22;37879;52.986;6.282;2023-01-31T01:33:04;2.80;99.90
51825;DHT22;37879;52.986;6.282;2023-01-31T01:35:30;2.80;99.90
51825;DHT22;37879;52.986;6.282;2023-01-31T01:37:55;2.80;99.90
51825;DHT22;37879;52.986;6.282;2023-01-31T01:40:21;2.70;99.90
51825;DHT22;37879;52.986;6.282;2023-01-31T01:42:47;2.70;99.90
51825;DHT22;37879;52.986;6.282;2023-01-31T01:45:14;2.60;99.90
51825;DHT22;37879;52.986;6.282;2023-01-31T01:47:52;2.60;99.90
51825;DHT22;37879;52.986;6.282;2023-01-31T01:50:31;2.60;99.90
51825;DHT22;37879;52.986;6.282;2023-01-31T01:53:09;2.50;99.90
51825;DHT22;37879;52.986;6.282;2023-01-31T01:55:43;2.40;99.90
51825;DHT22;37879;52.986;6.282;2023-01-31T01:58:11;2.50;99.90
51825;DHT22;37879;52.986;6.282;2023-01-31T02:00:38;2.40;99.90
51825;DHT22;37879;52.986;6.282;2023-01-31T02:03:06;2.40;99.90
51825;DHT22;37879;52.986;6.282;2023-01-31T02:05:43;2.40;99.90
51825;DHT22;37879;52.986;6.282;2023-01-31T02:08:11;2.50;99.90
51825;DHT22;37879;52.986;6.282;2023-01-31T02:10:46;2.50;99.90
51825;DHT22;37879;52.986;6.282;2023-01-31T02:13:14;2.50;99.90
51825;DHT22;37879;52.986;6.282;2023-01-31T02:15:39;2.50;99.90
51825;DHT22;37879;52.986;6.282;2023-01-31T02:18:06;2.70;99.90
51825;DHT22;37879;52.986;6.282;2023-01-31T02:20:40;3.50;99.90
51825;DHT22;37879;52.986;6.282;2023-01-31T02:31:53;2.90;99.90
51825;DHT22;37879;52.986;6.282;2023-01-31T02:37:35;3.00;99.90
51825;DHT22;37879;52.986;6.282;2023-01-31T02:40:21;3.20;99.90
51825;DHT22;37879;52.986;6.282;2023-01-31T02:43:09;3.10;99.90
51825;DHT22;37879;52.986;6.282;2023-01-31T02:45:50;3.20;99.90
51825;DHT22;37879;52.986;6.282;2023-01-31T02:51:24;3.20;99.90
51825;DHT22;37879;52.986;6.282;2023-01-31T02:54:08;3.80;99.90
51825;DHT22;37879;52.986;6.282;2023-01-31T02:56:39;3.20;99.90
51825;DHT22;37879;52.986;6.282;2023-01-31T02:59:16;3.30;99.90
51825;DHT22;37879;52.986;6.282;2023-01-31T03:01:49;3.30;99.90
51825;DHT22;37879;52.986;6.282;2023-01-31T03:04:15;3.30;99.90
51825;DHT22;37879;52.986;6.282;2023-01-31T03:07:06;3.70;99.90
51825;DHT22;37879;52.986;6.282;2023-01-31T03:09:40;3.50;99.90
51825;DHT22;37879;52.986;6.282;2023-01-31T03:15:01;3.60;99.90
51825;DHT22;37879;52.986;6.282;2023-01-31T03:23:13;3.70;99.90
51825;DHT22;37879;52.986;6.282;2023-01-31T03:25:41;3.80;99.90
51825;DHT22;37879;52.986;6.282;2023-01-31T03:28:13;3.80;99.90
51825;DHT22;37879;52.986;6.282;2023-01-31T03:30:50;3.90;99.90
51825;DHT22;37879;52.986;6.282;2023-01-31T03:33:25;3.90;99.90
51825;DHT22;37879;52.986;6.282;2023-01-31T03:41:33;4.10;99.90
51825;DHT22;37879;52.986;6.282;2023-01-31T03:44:14;5.40;99.90
51825;DHT22;37879;52.986;6.282;2023-01-31T03:46:45;4.10;99.90
51825;DHT22;37879;52.986;6.282;2023-01-31T03:49:14;4.20;99.90
51825;DHT22;37879;52.986;6.282;2023-01-31T03:51:51;4.20;99.90
51825;DHT22;37879;52.986;6.282;2023-01-31T03:54:23;4.30;99.90
51825;DHT22;37879;52.986;6.282;2023-01-31T03:56:55;4.30;99.90
51825;DHT22;37879;52.986;6.282;2023-01-31T03:59:27;4.40;99.90
51825;DHT22;37879;52.986;6.282;2023-01-31T04:01:56;4.40;99.90
51825;DHT22;37879;52.986;6.282;2023-01-31T04:04:40;4.50;99.90
51825;DHT22;37879;52.986;6.282;2023-01-31T04:07:08;4.50;99.90
51825;DHT22;37879;52.986;6.282;2023-01-31T04:09:34;4.60;99.90
51825;DHT22;37879;52.986;6.282;2023-01-31T04:12:01;5.50;99.90
51825;DHT22;37879;52.986;6.282;2023-01-31T04:14:27;4.60;99.90
51825;DHT22;37879;52.986;6.282;2023-01-31T04:16:53;4.60;99.90
51825;DHT22;37879;52.986;6.282;2023-01-31T04:19:18;4.60;99.90
51825;DHT22;37879;52.986;6.282;2023-01-31T04:21:44;4.60;99.90
51825;DHT22;37879;52.986;6.282;2023-01-31T04:24:10;4.60;99.90
51825;DHT22;37879;52.986;6.282;2023-01-31T04:26:36;4.60;99.90
51825;DHT22;37879;52.986;6.282;2023-01-31T04:29:02;4.90;99.90
51825;DHT22;37879;52.986;6.282;2023-01-31T04:31:28;5.00;99.90
51825;DHT22;37879;52.986;6.282;2023-01-31T04:33:53;4.70;99.90
51825;DHT22;37879;52.986;6.282;2023-01-31T04:36:19;4.70;99.90
51825;DHT22;37879;52.986;6.282;2023-01-31T04:38:44;4.70;99.90
51825;DHT22;37879;52.986;6.282;2023-01-31T04:41:10;4.70;99.90
51825;DHT22;37879;52.986;6.282;2023-01-31T04:43:36;4.70;99.90
51825;DHT22;37879;52.986;6.282;2023-01-31T04:46:01;4.80;99.90
51825;DHT22;37879;52.986;6.282;2023-01-31T04:48:27;4.90;99.90
51825;DHT22;37879;52.986;6.282;2023-01-31T04:50:53;4.70;99.90
51825;DHT22;37879;52.986;6.282;2023-01-31T04:53:18;4.70;99.90
51825;DHT22;37879;52.986;6.282;2023-01-31T04:55:46;4.70;99.90
51825;DHT22;37879;52.986;6.282;2023-01-31T04:58:12;4.70;99.90
51825;DHT22;37879;52.986;6.282;2023-01-31T05:00:37;4.70;99.90
51825;DHT22;37879;52.986;6.282;2023-01-31T05:03:03;4.70;99.90
51825;DHT22;37879;52.986;6.282;2023-01-31T05:05:29;5.70;99.90
51825;DHT22;37879;52.986;6.282;2023-01-31T05:07:55;4.80;99.90
51825;DHT22;37879;52.986;6.282;2023-01-31T05:10:20;4.70;99.90
51825;DHT22;37879;52.986;6.282;2023-01-31T05:12:46;4.80;99.90
51825;DHT22;37879;52.986;6.282;2023-01-31T05:15:12;4.80;99.90
51825;DHT22;37879;52.986;6.282;2023-01-31T05:17:38;4.80;99.90
51825;DHT22;37879;52.986;6.282;2023-01-31T05:20:04;4.70;99.90
51825;DHT22;37879;52.986;6.282;2023-01-31T05:22:30;4.80;99.90
51825;DHT22;37879;52.986;6.282;2023-01-31T05:24:55;5.40;99.90
51825;DHT22;37879;52.986;6.282;2023-01-31T05:27:21;4.80;99.90
51825;DHT22;37879;52.986;6.282;2023-01-31T05:29:47;4.80;99.90
51825;DHT22;37879;52.986;6.282;2023-01-31T05:32:13;4.80;99.90
51825;DHT22;37879;52.986;6.282;2023-01-31T05:34:39;4.80;99.90
51825;DHT22;37879;52.986;6.282;2023-01-31T05:37:05;5.50;99.90
51825;DHT22;37879;52.986;6.282;2023-01-31T05:39:31;4.90;99.90
51825;DHT22;37879;52.986;6.282;2023-01-31T05:41:57;4.90;99.90
51825;DHT22;37879;52.986;6.282;2023-01-31T05:44:23;4.80;99.90
51825;DHT22;37879;52.986;6.282;2023-01-31T05:46:48;4.80;99.90
51825;DHT22;37879;52.986;6.282;2023-01-31T05:49:14;5.10;99.90
51825;DHT22;37879;52.986;6.282;2023-01-31T05:51:40;4.80;99.90
51825;DHT22;37879;52.986;6.282;2023-01-31T05:54:07;4.90;99.90
51825;DHT22;37879;52.986;6.282;2023-01-31T05:56:32;4.90;99.90
51825;DHT22;37879;52.986;6.282;2023-01-31T05:58:58;5.20;99.90
51825;DHT22;37879;52.986;6.282;2023-01-31T06:01:26;4.90;99.90
51825;DHT22;37879;52.986;6.282;2023-01-31T06:03:52;5.00;99.90
51825;DHT22;37879;52.986;6.282;2023-01-31T06:06:19;5.00;99.90
51825;DHT22;37879;52.986;6.282;2023-01-31T06:08:45;5.00;99.90
51825;DHT22;37879;52.986;6.282;2023-01-31T06:11:11;5.00;99.90
51825;DHT22;37879;52.986;6.282;2023-01-31T06:13:39;5.10;99.90
51825;DHT22;37879;52.986;6.282;2023-01-31T06:16:05;6.30;99.90
51825;DHT22;37879;52.986;6.282;2023-01-31T06:18:31;5.10;99.90
51825;DHT22;37879;52.986;6.282;2023-01-31T06:20:56;5.20;99.90
51825;DHT22;37879;52.986;6.282;2023-01-31T06:23:22;5.10;99.90
51825;DHT22;37879;52.986;6.282;2023-01-31T06:25:49;5.20;99.90
51825;DHT22;37879;52.986;6.282;2023-01-31T06:28:15;5.60;99.90
51825;DHT22;37879;52.986;6.282;2023-01-31T06:30:41;5.20;99.90
51825;DHT22;37879;52.986;6.282;2023-01-31T06:33:06;5.40;99.90
51825;DHT22;37879;52.986;6.282;2023-01-31T06:35:33;5.20;99.90
51825;DHT22;37879;52.986;6.282;2023-01-31T06:37:58;5.20;99.90
51825;DHT22;37879;52.986;6.282;2023-01-31T06:40:24;5.30;99.90
51825;DHT22;37879;52.986;6.282;2023-01-31T06:42:50;5.30;99.90
51825;DHT22;37879;52.986;6.282;2023-01-31T06:45:15;5.30;99.90
51825;DHT22;37879;52.986;6.282;2023-01-31T06:47:44;5.30;99.90
51825;DHT22;37879;52.986;6.282;2023-01-31T06:50:10;5.30;99.90
51825;DHT22;37879;52.986;6.282;2023-01-31T06:52:36;5.30;99.90
51825;DHT22;37879;52.986;6.282;2023-01-31T06:55:02;5.30;99.90
51825;DHT22;37879;52.986;6.282;2023-01-31T06:57:28;5.30;99.90
51825;DHT22;37879;52.986;6.282;2023-01-31T06:59:53;5.30;99.90
51825;DHT22;37879;52.986;6.282;2023-01-31T07:02:19;5.40;99.90
51825;DHT22;37879;52.986;6.282;2023-01-31T07:04:44;5.30;99.90
51825;DHT22;37879;52.986;6.282;2023-01-31T07:07:10;5.40;99.90
51825;DHT22;37879;52.986;6.282;2023-01-31T07:09:36;5.30;99.90
51825;DHT22;37879;52.986;6.282;2023-01-31T07:12:02;5.50;99.90
51825;DHT22;37879;52.986;6.282;2023-01-31T07:14:27;5.40;99.90
51825;DHT22;37879;52.986;6.282;2023-01-31T07:16:53;5.40;99.90
51825;DHT22;37879;52.986;6.282;2023-01-31T07:19:19;5.40;99.90
51825;DHT22;37879;52.986;6.282;2023-01-31T07:21:44;5.50;99.90
51825;DHT22;37879;52.986;6.282;2023-01-31T07:24:11;5.50;99.90
51825;DHT22;37879;52.986;6.282;2023-01-31T07:26:37;5.40;99.90
51825;DHT22;37879;52.986;6.282;2023-01-31T07:29:02;5.70;99.90
51825;DHT22;37879;52.986;6.282;2023-01-31T07:31:28;5.50;99.90
51825;DHT22;37879;52.986;6.282;2023-01-31T07:33:54;5.50;99.90
51825;DHT22;37879;52.986;6.282;2023-01-31T07:36:19;5.50;99.90
51825;DHT22;37879;52.986;6.282;2023-01-31T07:38:52;6.20;99.90
51825;DHT22;37879;52.986;6.282;2023-01-31T07:41:18;5.50;99.90
51825;DHT22;37879;52.986;6.282;2023-01-31T07:43:44;5.40;99.90
51825;DHT22;37879;52.986;6.282;2023-01-31T07:46:10;5.60;99.90
51825;DHT22;37879;52.986;6.282;2023-01-31T07:48:36;5.40;99.90
51825;DHT22;37879;52.986;6.282;2023-01-31T07:51:02;5.40;99.90
51825;DHT22;37879;52.986;6.282;2023-01-31T07:53:30;5.40;99.90
51825;DHT22;37879;52.986;6.282;2023-01-31T07:56:17;5.40;99.90
51825;DHT22;37879;52.986;6.282;2023-01-31T07:58:44;5.40;99.90
51825;DHT22;37879;52.986;6.282;2023-01-31T08:03:59;5.40;99.90
51825;DHT22;37879;52.986;6.282;2023-01-31T08:06:27;5.40;99.90
51825;DHT22;37879;52.986;6.282;2023-01-31T08:08:53;5.40;99.90
51825;DHT22;37879;52.986;6.282;2023-01-31T08:11:19;5.40;99.90
51825;DHT22;37879;52.986;6.282;2023-01-31T08:13:44;5.40;99.90
51825;DHT22;37879;52.986;6.282;2023-01-31T08:16:10;6.10;99.90
51825;DHT22;37879;52.986;6.282;2023-01-31T08:18:37;5.90;99.90
51825;DHT22;37879;52.986;6.282;2023-01-31T08:21:04;5.50;99.90
51825;DHT22;37879;52.986;6.282;2023-01-31T08:23:29;5.50;99.90
51825;DHT22;37879;52.986;6.282;2023-01-31T08:26:03;5.50;99.90
51825;DHT22;37879;52.986;6.282;2023-01-31T08:28:30;5.50;99.90
51825;DHT22;37879;52.986;6.282;2023-01-31T08:30:56;5.90;99.90
51825;DHT22;37879;52.986;6.282;2023-01-31T08:33:22;5.60;99.90
51825;DHT22;37879;52.986;6.282;2023-01-31T08:35:48;5.60;99.90
51825;DHT22;37879;52.986;6.282;2023-01-31T08:38:13;5.60;99.90
51825;DHT22;37879;52.986;6.282;2023-01-31T08:40:39;5.60;99.90
51825;DHT22;37879;52.986;6.282;2023-01-31T08:43:04;5.60;99.90
51825;DHT22;37879;52.986;6.282;2023-01-31T08:45:30;5.60;99.90
51825;DHT22;37879;52.986;6.282;2023-01-31T08:47:57;5.70;99.90
51825;DHT22;37879;52.986;6.282;2023-01-31T08:50:25;6.10;99.90
51825;DHT22;37879;52.986;6.282;2023-01-31T08:52:53;5.60;99.90
51825;DHT22;37879;52.986;6.282;2023-01-31T08:55:19;5.70;99.90
51825;DHT22;37879;52.986;6.282;2023-01-31T08:57:45;5.70;99.90
51825;DHT22;37879;52.986;6.282;2023-01-31T09:00:11;4.60;99.90
51825;DHT22;37879;52.986;6.282;2023-01-31T09:02:36;5.70;99.90
51825;DHT22;37879;52.986;6.282;2023-01-31T09:05:02;5.70;99.90
51825;DHT22;37879;52.986;6.282;2023-01-31T09:07:28;5.70;99.90
51825;DHT22;37879;52.986;6.282;2023-01-31T09:09:54;5.70;99.90
51825;DHT22;37879;52.986;6.282;2023-01-31T09:12:19;5.70;99.90
51825;DHT22;37879;52.986;6.282;2023-01-31T09:14:45;5.70;99.90
51825;DHT22;37879;52.986;6.282;2023-01-31T09:17:10;5.90;99.90
51825;DHT22;37879;52.986;6.282;2023-01-31T09:19:37;5.80;99.90
51825;DHT22;37879;52.986;6.282;2023-01-31T09:22:02;6.10;99.90
51825;DHT22;37879;52.986;6.282;2023-01-31T09:24:28;5.80;99.90
51825;DHT22;37879;52.986;6.282;2023-01-31T09:26:54;5.90;99.90
51825;DHT22;37879;52.986;6.282;2023-01-31T09:29:20;5.90;99.90
51825;DHT22;37879;52.986;6.282;2023-01-31T09:31:50;6.00;99.90
51825;DHT22;37879;52.986;6.282;2023-01-31T09:34:16;6.10;99.90
51825;DHT22;37879;52.986;6.282;2023-01-31T09:36:41;6.10;99.90
51825;DHT22;37879;52.986;6.282;2023-01-31T09:39:08;6.20;99.90
51825;DHT22;37879;52.986;6.282;2023-01-31T09:41:43;6.20;99.90
51825;DHT22;37879;52.986;6.282;2023-01-31T09:44:19;6.20;99.90
51825;DHT22;37879;52.986;6.282;2023-01-31T09:46:48;6.30;99.90
51825;DHT22;37879;52.986;6.282;2023-01-31T09:49:20;6.30;99.90
51825;DHT22;37879;52.986;6.282;2023-01-31T09:51:51;6.30;99.90
51825;DHT22;37879;52.986;6.282;2023-01-31T09:54:36;7.00;99.90
51825;DHT22;37879;52.986;6.282;2023-01-31T10:00:17;6.40;99.90
51825;DHT22;37879;52.986;6.282;2023-01-31T10:05:41;6.80;99.90
51825;DHT22;37879;52.986;6.282;2023-01-31T10:08:35;6.40;99.90
51825;DHT22;37879;52.986;6.282;2023-01-31T10:11:05;6.40;99.90
51825;DHT22;37879;52.986;6.282;2023-01-31T10:13:52;6.40;99.90
51825;DHT22;37879;52.986;6.282;2023-01-31T10:16:30;6.50;99.90
51825;DHT22;37879;52.986;6.282;2023-01-31T10:19:07;6.50;99.90
51825;DHT22;37879;52.986;6.282;2023-01-31T10:21:39;6.50;99.90
51825;DHT22;37879;52.986;6.282;2023-01-31T10:24:22;6.50;99.90
51825;DHT22;37879;52.986;6.282;2023-01-31T10:26:51;6.50;99.90
51825;DHT22;37879;52.986;6.282;2023-01-31T10:29:42;6.50;99.90
51825;DHT22;37879;52.986;6.282;2023-01-31T10:32:20;6.50;99.90
51825;DHT22;37879;52.986;6.282;2023-01-31T10:34:59;6.40;99.90
51825;DHT22;37879;52.986;6.282;2023-01-31T10:37:46;6.40;99.90
51825;DHT22;37879;52.986;6.282;2023-01-31T10:40:29;6.40;99.90
51825;DHT22;37879;52.986;6.282;2023-01-31T10:43:01;6.40;99.90
51825;DHT22;37879;52.986;6.282;2023-01-31T10:45:29;6.40;99.90
51825;DHT22;37879;52.986;6.282;2023-01-31T10:53:49;6.30;99.90
51825;DHT22;37879;52.986;6.282;2023-01-31T10:56:28;6.30;99.90
51825;DHT22;37879;52.986;6.282;2023-01-31T10:58:57;6.30;99.90
51825;DHT22;37879;52.986;6.282;2023-01-31T11:01:24;6.40;99.90
51825;DHT22;37879;52.986;6.282;2023-01-31T11:03:54;6.70;99.90
51825;DHT22;37879;52.986;6.282;2023-01-31T11:06:21;6.40;99.90
51825;DHT22;37879;52.986;6.282;2023-01-31T11:11:21;6.90;99.90
51825;DHT22;37879;52.986;6.282;2023-01-31T11:14:01;6.40;99.90
51825;DHT22;37879;52.986;6.282;2023-01-31T11:16:33;6.50;99.90
51825;DHT22;37879;52.986;6.282;2023-01-31T11:19:02;6.40;99.90
51825;DHT22;37879;52.986;6.282;2023-01-31T11:21:33;6.40;99.90
51825;DHT22;37879;52.986;6.282;2023-01-31T11:24:03;6.40;99.90
51825;DHT22;37879;52.986;6.282;2023-01-31T11:26:34;6.40;99.90
51825;DHT22;37879;52.986;6.282;2023-01-31T11:29:02;6.50;99.90
51825;DHT22;37879;52.986;6.282;2023-01-31T11:31:38;6.40;99.90
51825;DHT22;37879;52.986;6.282;2023-01-31T11:34:18;6.50;99.90
51825;DHT22;37879;52.986;6.282;2023-01-31T11:36:44;6.50;99.90
51825;DHT22;37879;52.986;6.282;2023-01-31T11:39:32;6.50;99.90
51825;DHT22;37879;52.986;6.282;2023-01-31T11:42:13;6.50;99.90
51825;DHT22;37879;52.986;6.282;2023-01-31T11:49:57;6.80;99.90
51825;DHT22;37879;52.986;6.282;2023-01-31T11:52:29;6.90;99.90
51825;DHT22;37879;52.986;6.282;2023-01-31T11:54:57;7.00;99.90
51825;DHT22;37879;52.986;6.282;2023-01-31T11:57:28;7.10;99.90
51825;DHT22;37879;52.986;6.282;2023-01-31T11:59:57;7.20;99.90
51825;DHT22;37879;52.986;6.282;2023-01-31T12:02:29;7.20;99.90
51825;DHT22;37879;52.986;6.282;2023-01-31T12:04:57;7.30;99.90
51825;DHT22;37879;52.986;6.282;2023-01-31T12:07:28;7.40;99.90
51825;DHT22;37879;52.986;6.282;2023-01-31T12:09:56;7.50;99.90
51825;DHT22;37879;52.986;6.282;2023-01-31T12:12:34;7.60;99.90
51825;DHT22;37879;52.986;6.282;2023-01-31T12:15:12;7.60;99.90
51825;DHT22;37879;52.986;6.282;2023-01-31T12:17:48;7.70;99.90
51825;DHT22;37879;52.986;6.282;2023-01-31T12:20:38;7.80;99.90
51825;DHT22;37879;52.986;6.282;2023-01-31T12:42:58;8.10;99.90
51825;DHT22;37879;52.986;6.282;2023-01-31T12:51:36;8.20;99.90
51825;DHT22;37879;52.986;6.282;2023-01-31T12:56:54;8.30;99.90
51825;DHT22;37879;52.986;6.282;2023-01-31T13:05:27;8.50;99.90
51825;DHT22;37879;52.986;6.282;2023-01-31T13:08:15;8.50;99.90
51825;DHT22;37879;52.986;6.282;2023-01-31T13:11:08;8.50;99.90
51825;DHT22;37879;52.986;6.282;2023-01-31T13:13:40;8.50;99.90
51825;DHT22;37879;52.986;6.282;2023-01-31T13:16:43;8.60;99.90
51825;DHT22;37879;52.986;6.282;2023-01-31T13:19:19;8.60;99.90
51825;DHT22;37879;52.986;6.282;2023-01-31T13:21:50;8.60;99.90
51825;DHT22;37879;52.986;6.282;2023-01-31T13:24:20;8.60;99.90
51825;DHT22;37879;52.986;6.282;2023-01-31T13:26:55;8.70;99.90
51825;DHT22;37879;52.986;6.282;2023-01-31T13:29:41;8.80;99.90
51825;DHT22;37879;52.986;6.282;2023-01-31T13:34:48;8.70;99.90
51825;DHT22;37879;52.986;6.282;2023-01-31T13:37:16;8.70;99.90
51825;DHT22;37879;52.986;6.282;2023-01-31T13:39:55;8.80;99.90
51825;DHT22;37879;52.986;6.282;2023-01-31T13:42:22;8.70;99.90
51825;DHT22;37879;52.986;6.282;2023-01-31T13:44:48;8.60;99.90
51825;DHT22;37879;52.986;6.282;2023-01-31T13:47:27;9.10;99.90
51825;DHT22;37879;52.986;6.282;2023-01-31T13:52:54;8.60;99.90
51825;DHT22;37879;52.986;6.282;2023-01-31T13:55:32;8.60;99.90
51825;DHT22;37879;52.986;6.282;2023-01-31T13:58:15;8.60;99.90
51825;DHT22;37879;52.986;6.282;2023-01-31T14:00:47;8.60;99.90
51825;DHT22;37879;52.986;6.282;2023-01-31T14:03:19;8.60;99.90
51825;DHT22;37879;52.986;6.282;2023-01-31T14:05:58;8.60;99.90
51825;DHT22;37879;52.986;6.282;2023-01-31T14:13:44;8.50;99.90
51825;DHT22;37879;52.986;6.282;2023-01-31T14:19:03;8.50;99.90
51825;DHT22;37879;52.986;6.282;2023-01-31T14:23:59;8.60;99.90
51825;DHT22;37879;52.986;6.282;2023-01-31T14:26:49;8.50;99.90
51825;DHT22;37879;52.986;6.282;2023-01-31T14:29:24;8.50;99.90
51825;DHT22;37879;52.986;6.282;2023-01-31T14:31:53;8.50;99.90
51825;DHT22;37879;52.986;6.282;2023-01-31T14:34:26;8.50;99.90
51825;DHT22;37879;52.986;6.282;2023-01-31T14:37:23;8.40;99.90
51825;DHT22;37879;52.986;6.282;2023-01-31T15:01:50;8.70;99.90
51825;DHT22;37879;52.986;6.282;2023-01-31T15:04:20;8.30;99.90
51825;DHT22;37879;52.986;6.282;2023-01-31T15:06:49;8.20;99.90
51825;DHT22;37879;52.986;6.282;2023-01-31T15:11:50;8.20;99.90
51825;DHT22;37879;52.986;6.282;2023-01-31T15:14:32;8.20;99.90
51825;DHT22;37879;52.986;6.282;2023-01-31T15:17:21;8.20;99.90
51825;DHT22;37879;52.986;6.282;2023-01-31T15:19:51;8.30;99.90
51825;DHT22;37879;52.986;6.282;2023-01-31T15:22:20;8.20;99.90
51825;DHT22;37879;52.986;6.282;2023-01-31T15:24:50;8.20;99.90
51825;DHT22;37879;52.986;6.282;2023-01-31T15:27:22;8.20;99.90
51825;DHT22;37879;52.986;6.282;2023-01-31T15:29:53;8.20;99.90
51825;DHT22;37879;52.986;6.282;2023-01-31T15:32:26;8.10;99.90
51825;DHT22;37879;52.986;6.282;2023-01-31T15:35:22;8.10;99.90
51825;DHT22;37879;52.986;6.282;2023-01-31T15:40:31;8.00;99.90
51825;DHT22;37879;52.986;6.282;2023-01-31T15:43:22;7.90;99.90
51825;DHT22;37879;52.986;6.282;2023-01-31T15:45:49;7.90;99.90
51825;DHT22;37879;52.986;6.282;2023-01-31T15:48:18;8.10;99.90
51825;DHT22;37879;52.986;6.282;2023-01-31T15:53:18;7.70;99.90
51825;DHT22;37879;52.986;6.282;2023-01-31T15:55:47;7.70;99.90
51825;DHT22;37879;52.986;6.282;2023-01-31T15:58:19;7.70;99.90
51825;DHT22;37879;52.986;6.282;2023-01-31T16:00:51;7.70;99.90
51825;DHT22;37879;52.986;6.282;2023-01-31T16:03:39;7.60;99.90
51825;DHT22;37879;52.986;6.282;2023-01-31T16:06:33;7.50;99.90
51825;DHT22;37879;52.986;6.282;2023-01-31T16:09:00;7.40;99.90
51825;DHT22;37879;52.986;6.282;2023-01-31T16:11:26;7.40;99.90
51825;DHT22;37879;52.986;6.282;2023-01-31T16:13:56;7.40;99.90
51825;DHT22;37879;52.986;6.282;2023-01-31T16:16:24;7.30;99.90
51825;DHT22;37879;52.986;6.282;2023-01-31T16:18:53;7.30;99.90
51825;DHT22;37879;52.986;6.282;2023-01-31T16:21:27;7.20;99.90
51825;DHT22;37879;52.986;6.282;2023-01-31T16:24:02;7.20;99.90
51825;DHT22;37879;52.986;6.282;2023-01-31T16:26:36;7.10;99.90
51825;DHT22;37879;52.986;6.282;2023-01-31T16:29:09;7.00;99.90
51825;DHT22;37879;52.986;6.282;2023-01-31T16:31:47;7.00;99.90
51825;DHT22;37879;52.986;6.282;2023-01-31T16:34:32;6.90;99.90
51825;DHT22;37879;52.986;6.282;2023-01-31T16:37:05;6.90;99.90
51825;DHT22;37879;52.986;6.282;2023-01-31T16:39:38;8.20;99.90
51825;DHT22;37879;52.986;6.282;2023-01-31T16:42:25;6.90;99.90
51825;DHT22;37879;52.986;6.282;2023-01-31T16:44:54;6.90;99.90
51825;DHT22;37879;52.986;6.282;2023-01-31T16:52:49;6.80;99.90
51825;DHT22;37879;52.986;6.282;2023-01-31T16:55:18;6.80;99.90
51825;DHT22;37879;52.986;6.282;2023-01-31T16:57:43;6.70;99.90
51825;DHT22;37879;52.986;6.282;2023-01-31T17:02:52;6.60;99.90
51825;DHT22;37879;52.986;6.282;2023-01-31T17:07:49;6.60;99.90
51825;DHT22;37879;52.986;6.282;2023-01-31T17:10:26;6.50;99.90
51825;DHT22;37879;52.986;6.282;2023-01-31T17:13:00;6.50;99.90
51825;DHT22;37879;52.986;6.282;2023-01-31T17:15:26;6.50;99.90
51825;DHT22;37879;52.986;6.282;2023-01-31T17:17:52;6.50;99.90
51825;DHT22;37879;52.986;6.282;2023-01-31T17:20:19;6.40;99.90
51825;DHT22;37879;52.986;6.282;2023-01-31T17:22:46;6.40;99.90
51825;DHT22;37879;52.986;6.282;2023-01-31T17:25:21;6.40;99.90
51825;DHT22;37879;52.986;6.282;2023-01-31T17:27:48;6.40;99.90
51825;DHT22;37879;52.986;6.282;2023-01-31T17:30:17;6.30;99.90
51825;DHT22;37879;52.986;6.282;2023-01-31T17:32:42;6.30;99.90
51825;DHT22;37879;52.986;6.282;2023-01-31T17:35:19;6.30;99.90
51825;DHT22;37879;52.986;6.282;2023-01-31T17:37:45;6.30;99.90
51825;DHT22;37879;52.986;6.282;2023-01-31T17:40:11;6.30;99.90
51825;DHT22;37879;52.986;6.282;2023-01-31T17:42:36;6.30;99.90
51825;DHT22;37879;52.986;6.282;2023-01-31T17:45:03;6.30;99.90
51825;DHT22;37879;52.986;6.282;2023-01-31T17:47:28;6.30;99.90
51825;DHT22;37879;52.986;6.282;2023-01-31T17:49:54;6.30;99.90
51825;DHT22;37879;52.986;6.282;2023-01-31T17:52:22;6.20;99.90
51825;DHT22;37879;52.986;6.282;2023-01-31T17:54:47;6.30;99.90
51825;DHT22;37879;52.986;6.282;2023-01-31T17:57:13;6.20;99.90
51825;DHT22;37879;52.986;6.282;2023-01-31T17:59:39;6.30;99.90
51825;DHT22;37879;52.986;6.282;2023-01-31T18:02:04;6.20;99.90
51825;DHT22;37879;52.986;6.282;2023-01-31T18:04:30;6.30;99.90
51825;DHT22;37879;52.986;6.282;2023-01-31T18:06:56;6.30;99.90
51825;DHT22;37879;52.986;6.282;2023-01-31T18:09:21;6.20;99.90
51825;DHT22;37879;52.986;6.282;2023-01-31T18:11:47;6.20;99.90
51825;DHT22;37879;52.986;6.282;2023-01-31T18:14:13;6.30;99.90
51825;DHT22;37879;52.986;6.282;2023-01-31T18:16:40;6.20;99.90
51825;DHT22;37879;52.986;6.282;2023-01-31T18:19:05;6.20;99.90
51825;DHT22;37879;52.986;6.282;2023-01-31T18:21:31;6.20;99.90
51825;DHT22;37879;52.986;6.282;2023-01-31T18:23:57;6.20;99.90
51825;DHT22;37879;52.986;6.282;2023-01-31T18:26:24;6.20;99.90